アティラウ の空港の天気 - METARとTAF

Atyrau Airport ( UATG / GUW ) - カザフスタン Atyrau
飛行場実況気象(Metar)
観測時間10/19 23:00 ORAT (10/19 18:00 UTC)
風向・風速不定 1m/s
視程10km以上
天気現象
なし
気温6℃
湿度57%
気圧1024hPa
METARUATG 191800Z VRB01MPS CAVOK 06/M02 Q1024 R14/CLRD70 NOSIG RMK QFE770/1027
過去の天気等 Google飛行場航空写真 Wunderground天気予報

過去48時間のMETAR

飛行場予報(TAF)
発表時間: 10/19 22:00 ORAT (10/19 17:00 UTC)
予報対象時間: 19日23時 ORAT ~ 20日23時 ORAT
風向・風速不定 2m/s
視程10km以上
全天の4割程度の雲 雲底高度 1010m
20日3時 ORAT ~ 20日4時 ORAT に徐々に
視程3000m
天気現象もや
全天の8割程度の雲 雲底高度 300m
20日3時 ORAT ~ 20日9時 ORAT に一時的に
視程500m
天気現象
全天の8割程度の雲 雲底高度 60m
20日12時 ORAT ~ 20日14時 ORAT に徐々に
風向・風速南南西 7m/s
TAF UATG 191700Z 1918/2018 VRB02MPS 9999 SCT033 TX18/2010Z TN02/2003Z
BECMG 1922/1923 3000 BR BKN010
TEMPO 1922/2004 0500 FG BKN002
BECMG 2007/2009 21007MPS